Time;durP1;ratioP1;P1;durP2;ratioP2;P2;SDS_P1;SDS_P2;PMS_P1;PMS_P2;Temp;Humidity;BMP_temperature;BMP_pressure;BME280_temperature;BME280_humidity;BME280_pressure;Samples;Min_cycle;Max_cycle;Signal;HPM_P1;HPM_P2
2021/07/29 00:00:20;;;;;;;7.80;7.10;;;20.60;1.00;;;;;;5125964;27;20185;-56
2021/07/29 00:02:45;;;;;;;8.10;7.30;;;20.60;1.00;;;;;;5126318;27;20205;-55
2021/07/29 00:05:12;;;;;;;8.10;7.30;;;20.50;1.00;;;;;;5128757;27;20546;-55
2021/07/29 00:07:37;;;;;;;9.63;7.57;;;20.40;1.00;;;;;;5131801;27;20187;-55
2021/07/29 00:10:05;;;;;;;10.80;8.10;;;20.30;1.00;;;;;;5112173;27;20435;-55
2021/07/29 00:12:31;;;;;;;7.70;6.63;;;20.40;1.00;;;;;;5132691;27;20984;-55
2021/07/29 00:14:57;;;;;;;8.70;7.80;;;20.30;1.00;;;;;;5131959;27;20577;-55
2021/07/29 00:20:07;;;;;;;7.20;6.30;;;20.20;1.00;;;;;;5134728;27;20936;-55
2021/07/29 00:22:32;;;;;;;7.70;6.90;;;20.20;1.00;;;;;;5132165;27;20792;-55
2021/07/29 00:24:58;;;;;;;9.17;6.63;;;20.30;1.00;;;;;;5129953;27;20466;-56
2021/07/29 00:27:23;;;;;;;8.07;6.80;;;20.30;1.00;;;;;;5128408;27;20228;-55
2021/07/29 00:29:56;;;;;;;7.60;6.90;;;20.30;1.00;;;;;;5133456;27;20284;-56
2021/07/29 00:32:21;;;;;;;8.47;7.10;;;20.30;1.00;;;;;;5127572;27;20219;-57
2021/07/29 00:34:47;;;;;;;9.67;6.60;;;20.40;1.00;;;;;;5132612;27;20430;-56
2021/07/29 00:37:12;;;;;;;8.00;6.60;;;20.40;1.00;;;;;;5131032;27;20188;-55
2021/07/29 00:39:38;;;;;;;9.80;6.93;;;20.50;1.00;;;;;;5111960;27;20209;-55
2021/07/29 00:42:03;;;;;;;7.40;6.70;;;20.60;1.00;;;;;;5131857;27;20617;-55
2021/07/29 00:44:30;;;;;;;7.53;6.73;;;20.60;1.00;;;;;;5120271;27;20197;-56
2021/07/29 00:46:56;;;;;;;8.20;6.57;;;20.70;1.00;;;;;;5130843;27;20169;-55
2021/07/29 00:49:22;;;;;;;7.63;6.93;;;20.80;1.00;;;;;;5113497;27;20470;-54
2021/07/29 00:51:48;;;;;;;7.43;6.47;;;20.90;1.00;;;;;;5132936;27;20842;-57
2021/07/29 00:54:14;;;;;;;7.23;6.47;;;20.90;1.00;;;;;;5143175;27;20537;-56
2021/07/29 00:56:44;;;;;;;8.07;6.23;;;20.90;1.00;;;;;;5132696;27;20648;-56
2021/07/29 00:59:09;;;;;;;6.27;5.67;;;20.90;1.00;;;;;;5127120;27;20200;-56
2021/07/29 01:01:35;;;;;;;8.00;7.13;;;20.90;1.00;;;;;;5131032;27;20443;-56
2021/07/29 01:04:00;;;;;;;7.57;6.80;;;20.90;1.00;;;;;;5121280;27;20201;-56
2021/07/29 01:06:27;;;;;;;7.83;6.40;;;21.00;1.00;;;;;;5128860;27;20185;-56
2021/07/29 01:09:08;;;;;;;7.10;6.43;;;20.90;1.00;;;;;;5130018;27;20174;-55
2021/07/29 01:11:34;;;;;;;8.40;6.33;;;20.90;1.00;;;;;;5130504;27;20439;-55
2021/07/29 01:13:59;;;;;;;6.27;5.73;;;20.90;1.00;;;;;;5130276;27;20460;-55
2021/07/29 01:16:25;;;;;;;6.80;6.20;;;21.00;1.00;;;;;;5132450;27;20223;-56
2021/07/29 01:18:51;;;;;;;7.10;6.40;;;21.00;1.00;;;;;;5131317;27;20578;-55
2021/07/29 01:21:16;;;;;;;6.50;5.90;;;20.90;1.00;;;;;;5131644;27;20253;-56
2021/07/29 01:23:42;;;;;;;6.23;5.70;;;21.20;1.00;;;;;;5129631;27;20470;-55
2021/07/29 01:26:07;;;;;;;6.73;5.60;;;21.00;1.00;;;;;;5131630;27;20189;-56
2021/07/29 01:28:33;;;;;;;7.03;6.33;;;21.00;1.00;;;;;;5131334;27;20208;-55
2021/07/29 01:30:58;;;;;;;6.23;5.73;;;20.90;1.00;;;;;;5129698;27;20224;-55
2021/07/29 01:33:24;;;;;;;7.20;6.53;;;20.80;1.00;;;;;;5130534;27;20173;-56
2021/07/29 01:35:49;;;;;;;6.87;6.30;;;20.80;1.00;;;;;;5131669;27;20185;-55
2021/07/29 01:38:15;;;;;;;6.70;6.03;;;20.60;1.00;;;;;;5129668;27;20642;-55
2021/07/29 01:40:40;;;;;;;7.10;6.50;;;20.60;1.00;;;;;;5127986;27;20599;-55
2021/07/29 01:43:06;;;;;;;7.03;6.43;;;20.50;1.00;;;;;;5131751;27;20196;-55
2021/07/29 01:45:31;;;;;;;7.17;6.47;;;20.40;1.00;;;;;;5131067;27;20247;-55
2021/07/29 01:47:57;;;;;;;7.40;6.70;;;20.40;1.00;;;;;;5129130;27;20268;-56
2021/07/29 01:50:22;;;;;;;6.07;5.60;;;20.30;1.00;;;;;;5132261;27;20186;-57
2021/07/29 01:52:48;;;;;;;7.03;6.33;;;20.30;1.00;;;;;;5129587;27;20224;-56
2021/07/29 01:55:14;;;;;;;6.77;6.17;;;20.20;1.00;;;;;;5131572;27;20264;-55
2021/07/29 01:57:39;;;;;;;7.00;6.30;;;20.20;1.00;;;;;;5129704;27;20198;-55
2021/07/29 02:00:06;;;;;;;7.53;6.83;;;20.20;1.00;;;;;;5131736;27;20545;-56
2021/07/29 02:02:32;;;;;;;7.60;6.90;;;20.10;1.00;;;;;;5125805;27;20185;-56
2021/07/29 02:04:57;;;;;;;8.53;6.67;;;20.20;1.00;;;;;;5129096;27;20486;-55
2021/07/29 02:07:23;;;;;;;6.70;6.00;;;20.10;1.00;;;;;;5129131;27;20534;-57
2021/07/29 02:09:48;;;;;;;8.60;6.23;;;20.00;1.00;;;;;;5131164;27;20239;-56
2021/07/29 02:12:14;;;;;;;6.70;6.00;;;20.00;1.00;;;;;;5128384;27;20186;-56
2021/07/29 02:14:39;;;;;;;6.93;5.60;;;20.00;1.00;;;;;;5111663;27;20239;-55
2021/07/29 02:17:05;;;;;;;7.27;5.63;;;19.90;1.00;;;;;;5129797;27;20205;-55
2021/07/29 02:19:32;;;;;;;7.10;6.27;;;19.90;1.00;;;;;;5127954;27;20189;-55
2021/07/29 02:21:58;;;;;;;6.37;5.60;;;19.80;1.00;;;;;;5110293;27;20192;-56
2021/07/29 02:24:23;;;;;;;6.70;6.00;;;19.90;1.00;;;;;;5130691;27;20510;-56
2021/07/29 02:26:49;;;;;;;5.90;5.40;;;19.90;1.00;;;;;;5130666;27;20443;-55
2021/07/29 02:29:15;;;;;;;6.40;5.80;;;19.90;1.00;;;;;;5127181;27;20230;-57
2021/07/29 02:31:40;;;;;;;5.60;5.10;;;19.90;1.00;;;;;;5131767;27;20174;-55
2021/07/29 02:34:06;;;;;;;6.50;5.43;;;19.90;1.00;;;;;;5129856;27;20224;-55
2021/07/29 02:36:31;;;;;;;9.63;5.93;;;19.80;1.00;;;;;;5131174;27;20205;-55
2021/07/29 02:38:57;;;;;;;5.90;5.40;;;19.90;1.00;;;;;;5131018;27;20706;-55
2021/07/29 02:41:22;;;;;;;5.37;4.60;;;19.80;1.00;;;;;;5129882;27;20704;-55
2021/07/29 02:43:48;;;;;;;5.23;4.73;;;19.80;1.00;;;;;;5131008;27;20247;-56
2021/07/29 02:46:13;;;;;;;6.07;5.47;;;19.80;1.00;;;;;;5129693;27;20181;-56
2021/07/29 02:48:39;;;;;;;5.63;5.13;;;19.70;1.00;;;;;;5136856;27;20656;-56
2021/07/29 02:51:05;;;;;;;6.00;5.40;;;19.80;1.00;;;;;;5128643;27;20584;-55
2021/07/29 02:53:34;;;;;;;6.10;5.53;;;19.70;1.00;;;;;;5133862;27;20220;-56
2021/07/29 02:56:00;;;;;;;6.37;5.60;;;19.80;1.00;;;;;;5128276;27;20201;-56
2021/07/29 02:58:26;;;;;;;5.93;5.37;;;19.70;1.00;;;;;;5127400;27;20448;-57
2021/07/29 03:00:52;;;;;;;6.33;5.60;;;19.70;1.00;;;;;;5128120;27;20439;-56
2021/07/29 03:03:18;;;;;;;5.63;5.13;;;19.70;1.00;;;;;;5129453;27;20249;-55
2021/07/29 03:05:43;;;;;;;5.97;5.37;;;19.60;1.00;;;;;;5138528;27;20438;-55
2021/07/29 03:08:09;;;;;;;7.73;5.23;;;19.60;1.00;;;;;;5130684;27;20173;-56
2021/07/29 03:10:35;;;;;;;5.93;5.47;;;19.60;1.00;;;;;;5128912;27;20185;-56
2021/07/29 03:13:04;;;;;;;6.37;5.60;;;19.50;1.00;;;;;;5124148;27;20210;-56
2021/07/29 03:15:30;;;;;;;5.87;5.37;;;19.60;1.00;;;;;;5142741;27;20190;-55
2021/07/29 03:17:56;;;;;;;7.03;5.70;;;19.60;1.00;;;;;;5131011;27;20822;-55
2021/07/29 03:20:22;;;;;;;6.07;5.47;;;19.20;1.00;;;;;;5127781;27;20482;-55
2021/07/29 03:22:48;;;;;;;5.70;5.20;;;19.50;1.00;;;;;;5123043;27;20964;-56
2021/07/29 03:25:13;;;;;;;7.97;5.43;;;19.60;1.00;;;;;;5127418;27;20558;-56
2021/07/29 03:27:39;;;;;;;5.63;5.13;;;19.60;1.00;;;;;;5130653;27;20579;-55
2021/07/29 03:30:05;;;;;;;7.23;5.90;;;19.50;1.00;;;;;;5130471;27;20197;-55
2021/07/29 03:32:30;;;;;;;6.20;5.63;;;19.50;1.00;;;;;;5130121;27;20173;-54
2021/07/29 03:34:56;;;;;;;6.40;5.20;;;19.50;1.00;;;;;;5129726;27;20434;-55
2021/07/29 03:37:21;;;;;;;6.50;5.90;;;19.50;1.00;;;;;;5128418;27;20184;-56
2021/07/29 03:39:47;;;;;;;5.67;5.17;;;19.50;1.00;;;;;;5141133;27;20188;-56
2021/07/29 03:42:12;;;;;;;5.80;5.20;;;19.50;1.00;;;;;;5141361;27;20169;-55
2021/07/29 03:44:38;;;;;;;6.20;5.67;;;19.50;1.00;;;;;;5133432;27;20582;-55
2021/07/29 03:47:04;;;;;;;5.77;5.27;;;19.40;1.00;;;;;;5131540;27;20226;-55
2021/07/29 03:49:32;;;;;;;10.87;5.60;;;19.50;1.00;;;;;;5131930;27;20189;-56
2021/07/29 03:51:59;;;;;;;6.43;5.70;;;19.50;1.00;;;;;;5132641;27;20223;-54
2021/07/29 03:54:25;;;;;;;6.63;5.13;;;19.40;1.00;;;;;;5137903;27;20435;-55
2021/07/29 03:56:50;;;;;;;5.57;4.70;;;19.40;1.00;;;;;;5133632;27;20458;-55
2021/07/29 03:59:16;;;;;;;6.10;5.27;;;19.40;1.00;;;;;;5134152;27;20189;-54
2021/07/29 04:01:41;;;;;;;7.33;6.53;;;19.40;1.00;;;;;;5130579;27;20197;-55
2021/07/29 04:04:07;;;;;;;9.07;5.70;;;19.40;1.00;;;;;;5131047;27;20209;-54
2021/07/29 04:06:32;;;;;;;7.43;5.30;;;19.40;1.00;;;;;;5132464;27;20645;-56
2021/07/29 04:08:58;;;;;;;11.70;10.60;;;19.50;1.00;;;;;;5134949;27;20623;-55
2021/07/29 04:11:23;;;;;;;6.20;5.20;;;19.60;1.00;;;;;;5131250;27;20177;-55
2021/07/29 04:13:49;;;;;;;7.00;4.90;;;;;;;;;;5129764;27;20234;-55
2021/07/29 04:16:15;;;;;;;6.90;4.87;;;19.60;1.00;;;;;;5130702;27;20217;-54
2021/07/29 04:18:42;;;;;;;8.80;6.10;;;19.70;1.00;;;;;;5128588;27;20792;-54
2021/07/29 04:21:14;;;;;;;5.10;4.63;;;19.70;1.00;;;;;;5125591;27;20239;-55
2021/07/29 04:23:39;;;;;;;10.30;5.13;;;19.80;1.00;;;;;;5132937;27;20455;-54
2021/07/29 04:26:05;;;;;;;5.60;4.80;;;22.70;1.00;;;;;;5133657;27;20580;-55
2021/07/29 04:28:30;;;;;;;7.37;4.93;;;20.00;1.00;;;;;;5134405;27;20283;-56
2021/07/29 04:30:56;;;;;;;7.27;5.53;;;20.00;1.00;;;;;;5130220;27;20650;-55
2021/07/29 04:33:22;;;;;;;5.20;4.70;;;20.20;1.00;;;;;;5133995;27;20178;-55
2021/07/29 04:35:47;;;;;;;5.07;4.13;;;20.30;1.00;;;;;;5129655;27;20204;-56
2021/07/29 04:38:13;;;;;;;5.17;4.67;;;20.40;1.00;;;;;;5131207;27;20209;-55
2021/07/29 04:40:38;;;;;;;5.80;4.90;;;20.60;1.00;;;;;;5134043;27;20579;-56
2021/07/29 04:43:04;;;;;;;4.90;4.40;;;20.50;1.00;;;;;;5114651;27;20174;-55
2021/07/29 04:45:30;;;;;;;5.70;4.10;;;20.60;1.00;;;;;;5132071;27;20554;-56
2021/07/29 04:47:55;;;;;;;5.33;4.37;;;20.50;1.00;;;;;;5127810;27;20674;-55
2021/07/29 04:50:21;;;;;;;4.67;4.27;;;20.50;1.00;;;;;;5122491;27;20192;-56
2021/07/29 04:52:50;;;;;;;4.70;4.30;;;20.60;1.00;;;;;;5133760;27;20221;-56
2021/07/29 04:55:19;;;;;;;5.20;4.10;;;20.60;1.00;;;;;;5130683;27;20439;-56
2021/07/29 04:57:44;;;;;;;7.10;4.03;;;20.80;1.00;;;;;;5129264;27;20451;-55
2021/07/29 05:00:10;;;;;;;4.70;4.07;;;20.80;1.00;;;;;;5132033;27;20451;-56
2021/07/29 05:02:36;;;;;;;5.20;4.27;;;20.80;1.00;;;;;;5132787;27;22330;-56
2021/07/29 05:05:02;;;;;;;6.70;4.80;;;20.90;1.00;;;;;;5129024;27;20481;-54
2021/07/29 05:07:27;;;;;;;5.63;4.30;;;21.10;1.00;;;;;;5131151;27;20188;-56
2021/07/29 05:09:53;;;;;;;5.00;4.37;;;21.30;1.00;;;;;;5131680;27;20259;-55
2021/07/29 05:12:18;;;;;;;4.97;4.50;;;21.40;1.00;;;;;;5125240;27;20761;-55
2021/07/29 05:14:44;;;;;;;5.00;4.50;;;21.60;1.00;;;;;;5132312;27;20238;-56
2021/07/29 05:17:10;;;;;;;4.63;4.10;;;22.00;1.00;;;;;;5132206;27;20205;-55
2021/07/29 05:19:35;;;;;;;4.47;3.60;;;22.30;1.00;;;;;;5126687;27;20454;-55
2021/07/29 05:22:01;;;;;;;3.80;3.50;;;22.50;1.00;;;;;;5130869;27;20213;-56
2021/07/29 05:24:27;;;;;;;4.90;3.93;;;22.70;1.00;;;;;;5113075;27;20686;-54
2021/07/29 05:26:53;;;;;;;4.57;4.07;;;22.60;1.00;;;;;;5132746;27;20177;-55
2021/07/29 05:29:19;;;;;;;3.33;3.00;;;22.40;1.00;;;;;;5129081;27;20548;-54
2021/07/29 05:31:45;;;;;;;5.03;3.40;;;22.50;1.00;;;;;;5131340;27;20447;-54
2021/07/29 05:34:11;;;;;;;3.73;3.40;;;22.70;1.00;;;;;;5113397;27;20188;-56
2021/07/29 05:36:37;;;;;;;3.50;3.10;;;22.60;1.00;;;;;;5131984;27;20195;-55
2021/07/29 05:39:03;;;;;;;4.27;3.77;;;22.60;1.00;;;;;;5126992;27;20893;-56
2021/07/29 05:41:29;;;;;;;3.73;3.20;;;22.60;1.00;;;;;;5130307;27;20932;-55
2021/07/29 05:43:54;;;;;;;3.90;3.53;;;22.50;1.00;;;;;;5132534;27;20500;-56
2021/07/29 05:46:21;;;;;;;3.50;3.20;;;22.40;1.00;;;;;;5127394;27;20177;-55
2021/07/29 05:48:47;;;;;;;3.97;3.10;;;22.30;1.00;;;;;;5128372;27;20192;-58
2021/07/29 05:51:13;;;;;;;3.83;3.33;;;22.30;1.00;;;;;;5129666;27;20443;-55
2021/07/29 05:53:38;;;;;;;4.00;3.57;;;22.40;1.00;;;;;;5129354;27;20823;-55
2021/07/29 05:56:04;;;;;;;5.30;4.07;;;22.30;1.00;;;;;;5124273;27;20193;-56
2021/07/29 05:58:30;;;;;;;4.70;3.80;;;22.20;1.00;;;;;;5129268;27;20247;-55
2021/07/29 06:00:56;;;;;;;5.00;3.83;;;22.10;1.00;;;;;;5127551;27;20173;-55
2021/07/29 06:03:22;;;;;;;4.33;3.70;;;22.10;1.00;;;;;;5122461;27;20234;-56
2021/07/29 06:05:47;;;;;;;4.10;3.40;;;22.10;1.00;;;;;;5132377;27;20443;-56
2021/07/29 06:08:13;;;;;;;4.50;3.73;;;22.10;1.00;;;;;;5128939;27;20600;-55
2021/07/29 06:10:39;;;;;;;4.63;3.07;;;22.20;1.00;;;;;;5126830;27;20273;-56
2021/07/29 06:13:05;;;;;;;4.43;4.03;;;22.40;1.00;;;;;;5128206;27;20181;-55
2021/07/29 06:15:31;;;;;;;5.63;3.50;;;22.60;1.00;;;;;;5130411;27;20443;-55
2021/07/29 06:18:01;;;;;;;4.37;3.97;;;22.70;1.00;;;;;;5127549;27;20446;-55
2021/07/29 06:20:27;;;;;;;5.43;3.87;;;22.70;1.00;;;;;;5124573;27;20185;-55
2021/07/29 06:22:53;;;;;;;3.67;3.37;;;22.80;1.00;;;;;;5129612;27;20542;-55
2021/07/29 06:25:19;;;;;;;4.30;3.40;;;22.90;1.00;;;;;;5111506;27;20484;-55
2021/07/29 06:27:49;;;;;;;7.20;3.97;;;22.90;1.00;;;;;;5109392;27;20193;-55
2021/07/29 06:30:16;;;;;;;4.90;3.50;;;22.80;1.00;;;;;;5126130;27;20659;-57
2021/07/29 06:32:42;;;;;;;4.47;3.77;;;22.70;1.00;;;;;;5128530;27;20535;-56
2021/07/29 06:35:08;;;;;;;4.20;3.80;;;22.70;1.00;;;;;;5128537;27;20425;-55
2021/07/29 06:37:34;;;;;;;3.90;3.60;;;22.90;1.00;;;;;;5129089;27;20526;-56
2021/07/29 06:40:00;;;;;;;4.03;3.57;;;23.10;1.00;;;;;;5130692;27;20529;-56
2021/07/29 06:42:26;;;;;;;4.43;3.50;;;23.20;1.00;;;;;;5125389;27;20242;-55
2021/07/29 06:44:51;;;;;;;4.27;3.97;;;23.30;1.00;;;;;;5128580;27;20459;-56
2021/07/29 06:47:20;;;;;;;4.53;3.90;;;23.40;1.00;;;;;;5111001;27;20657;-58
2021/07/29 06:49:47;;;;;;;5.10;4.50;;;23.60;1.00;;;;;;5126938;27;20273;-56
2021/07/29 06:52:13;;;;;;;4.10;3.53;;;23.70;1.00;;;;;;5128566;27;21028;-56
2021/07/29 06:54:39;;;;;;;4.17;3.60;;;23.80;1.00;;;;;;5133748;27;20736;-55
2021/07/29 06:57:06;;;;;;;4.00;3.10;;;23.80;1.00;;;;;;5130866;27;20718;-56
2021/07/29 06:59:32;;;;;;;3.70;3.40;;;23.80;1.00;;;;;;5130692;27;20991;-58
2021/07/29 07:01:57;;;;;;;6.73;3.57;;;23.80;1.00;;;;;;5124834;27;20525;-55
2021/07/29 07:04:23;;;;;;;4.00;3.30;;;23.70;1.00;;;;;;5129514;27;20221;-55
2021/07/29 07:06:48;;;;;;;4.07;3.70;;;23.60;1.00;;;;;;5130607;27;20554;-55
2021/07/29 07:09:14;;;;;;;6.13;3.17;;;23.70;1.00;;;;;;5128609;27;20191;-57
2021/07/29 07:11:39;;;;;;;3.43;2.80;;;23.90;1.00;;;;;;5129715;27;20727;-55
2021/07/29 07:14:06;;;;;;;4.40;3.10;;;23.70;1.00;;;;;;5130833;27;20314;-57
2021/07/29 07:16:33;;;;;;;3.47;3.17;;;23.80;1.00;;;;;;5109394;27;20185;-55
2021/07/29 07:18:59;;;;;;;4.07;3.67;;;23.90;1.00;;;;;;5128099;27;20451;-54
2021/07/29 07:21:24;;;;;;;5.30;3.57;;;24.00;1.00;;;;;;5108116;27;20525;-56
2021/07/29 07:23:50;;;;;;;3.90;3.50;;;23.80;1.00;;;;;;5129730;27;20451;-55
2021/07/29 07:26:21;;;;;;;4.30;3.37;;;23.90;1.00;;;;;;5129866;27;20587;-56
2021/07/29 07:28:48;;;;;;;3.17;2.97;;;24.20;1.00;;;;;;5110919;27;20206;-54
2021/07/29 07:31:14;;;;;;;4.07;2.70;;;24.40;1.00;;;;;;5128972;27;20527;-56
2021/07/29 07:33:40;;;;;;;3.27;2.97;;;24.60;1.00;;;;;;5130202;27;20446;-55
2021/07/29 07:36:06;;;;;;;5.50;2.83;;;24.70;1.00;;;;;;5129294;27;20762;-55
2021/07/29 07:38:32;;;;;;;2.73;2.40;;;24.60;1.00;;;;;;5142910;27;20570;-55
2021/07/29 07:41:07;;;;;;;4.00;3.47;;;24.50;1.00;;;;;;5111266;27;20533;-55
2021/07/29 07:43:33;;;;;;;3.30;2.93;;;24.40;1.00;;;;;;5126537;27;20173;-56
2021/07/29 07:46:00;;;;;;;3.07;2.87;;;24.40;1.00;;;;;;5108359;27;20447;-56
2021/07/29 07:48:26;;;;;;;3.00;2.80;;;24.30;1.00;;;;;;5128564;27;20482;-55
2021/07/29 07:50:53;;;;;;;3.87;3.03;;;24.60;1.00;;;;;;5109622;27;21101;-55
2021/07/29 07:53:21;;;;;;;2.57;2.37;;;24.80;1.00;;;;;;5129421;27;20444;-57
2021/07/29 07:55:46;;;;;;;4.33;2.60;;;25.00;1.00;;;;;;5126369;27;20493;-56
2021/07/29 07:58:12;;;;;;;5.70;2.70;;;25.30;1.00;;;;;;5133928;27;20457;-55
2021/07/29 08:00:38;;;;;;;2.90;2.70;;;25.30;1.00;;;;;;5123374;27;20192;-55
2021/07/29 08:03:03;;;;;;;2.97;2.40;;;25.00;1.00;;;;;;5111699;27;20186;-54
2021/07/29 08:05:29;;;;;;;4.13;2.60;;;25.00;1.00;;;;;;5127207;27;20312;-55
2021/07/29 08:07:54;;;;;;;3.13;2.67;;;25.10;1.00;;;;;;5132163;27;20294;-56
2021/07/29 08:10:20;;;;;;;3.00;2.73;;;24.90;1.00;;;;;;5130367;27;20237;-55
2021/07/29 08:12:45;;;;;;;3.00;2.43;;;24.70;1.00;;;;;;5129622;27;20196;-54
2021/07/29 08:15:12;;;;;;;3.20;2.40;;;24.80;1.00;;;;;;5129955;27;20253;-55
2021/07/29 08:17:37;;;;;;;3.60;2.90;;;24.80;1.00;;;;;;5133271;27;20214;-54
2021/07/29 08:20:03;;;;;;;6.20;2.90;;;24.90;1.00;;;;;;5129625;27;20448;-54
2021/07/29 08:22:29;;;;;;;3.83;3.00;;;25.10;1.00;;;;;;5133456;27;20204;-56
2021/07/29 08:24:54;;;;;;;3.30;2.93;;;25.10;1.00;;;;;;5130217;27;20477;-56
2021/07/29 08:27:20;;;;;;;5.23;3.10;;;24.40;1.00;;;;;;5132039;27;20177;-57
2021/07/29 08:29:45;;;;;;;3.33;2.80;;;24.90;1.00;;;;;;5137640;27;20667;-54
2021/07/29 08:32:11;;;;;;;3.23;2.87;;;25.00;1.00;;;;;;5150221;27;20272;-55
2021/07/29 08:34:37;;;;;;;3.27;2.97;;;25.00;1.00;;;;;;5133295;27;20185;-54
2021/07/29 08:37:02;;;;;;;5.30;2.87;;;24.90;1.00;;;;;;5130573;27;20204;-54
2021/07/29 08:39:28;;;;;;;2.90;2.57;;;25.00;1.00;;;;;;5128001;27;20188;-56
2021/07/29 08:41:54;;;;;;;3.40;3.10;;;24.80;1.00;;;;;;5129540;27;20220;-55
2021/07/29 08:44:19;;;;;;;3.77;2.80;;;25.10;1.00;;;;;;5135800;27;20552;-55
2021/07/29 08:46:45;;;;;;;3.10;2.80;;;25.00;1.00;;;;;;5131901;27;20225;-55
2021/07/29 08:49:11;;;;;;;3.23;2.93;;;;;;;;;;5146825;27;20231;-54
2021/07/29 08:51:38;;;;;;;7.13;3.37;;;25.10;1.00;;;;;;5134725;27;20264;-55
2021/07/29 08:54:12;;;;;;;3.37;3.07;;;25.10;1.00;;;;;;5129697;27;20504;-55
2021/07/29 08:56:38;;;;;;;3.67;3.00;;;25.50;1.00;;;;;;5113991;27;20861;-55
2021/07/29 08:59:07;;;;;;;3.37;2.93;;;25.50;1.00;;;;;;5115271;27;20530;-56
2021/07/29 09:01:38;;;;;;;2.97;2.73;;;25.50;1.00;;;;;;5132692;27;20190;-56
2021/07/29 09:04:11;;;;;;;3.63;3.10;;;25.30;1.00;;;;;;5133451;27;20519;-54
2021/07/29 09:06:51;;;;;;;4.43;2.50;;;25.10;1.00;;;;;;5135782;27;20530;-55
2021/07/29 09:09:34;;;;;;;4.20;2.73;;;25.30;1.00;;;;;;5142505;27;20923;-55
2021/07/29 09:12:16;;;;;;;3.40;2.80;;;25.30;1.00;;;;;;5140951;27;20522;-55
2021/07/29 09:14:42;;;;;;;2.87;2.67;;;25.30;1.00;;;;;;5133867;27;20484;-56
2021/07/29 09:17:08;;;;;;;5.47;3.27;;;25.40;1.00;;;;;;5115287;27;20483;-54
2021/07/29 09:19:42;;;;;;;3.63;3.10;;;25.50;1.00;;;;;;5141203;27;20832;-57
2021/07/29 09:22:13;;;;;;;3.13;2.63;;;25.90;1.00;;;;;;5133417;27;20428;-56
2021/07/29 09:24:56;;;;;;;3.17;2.87;;;26.50;1.00;;;;;;5148433;27;20524;-56
2021/07/29 09:27:22;;;;;;;2.70;2.50;;;26.80;1.00;;;;;;5132079;27;20442;-55
2021/07/29 09:29:48;;;;;;;3.20;2.90;;;26.40;1.00;;;;;;5133864;27;20436;-54
2021/07/29 09:32:16;;;;;;;2.70;2.50;;;26.50;1.00;;;;;;5138975;27;21007;-55
2021/07/29 09:34:43;;;;;;;4.73;3.47;;;26.60;1.00;;;;;;5147989;27;20189;-56
2021/07/29 09:37:10;;;;;;;3.70;3.10;;;26.60;1.00;;;;;;5138744;27;20443;-54
2021/07/29 09:39:36;;;;;;;4.37;2.70;;;26.50;1.00;;;;;;5132274;27;20931;-54
2021/07/29 09:42:22;;;;;;;4.40;3.00;;;26.50;1.00;;;;;;5138945;27;20460;-55
2021/07/29 09:44:53;;;;;;;5.07;3.00;;;26.70;1.00;;;;;;5129932;27;20211;-55
2021/07/29 09:47:22;;;;;;;4.90;2.90;;;26.90;1.00;;;;;;5133124;27;20409;-56
2021/07/29 09:49:49;;;;;;;5.70;3.10;;;26.80;1.00;;;;;;5143678;27;20458;-57
2021/07/29 09:52:15;;;;;;;3.53;3.23;;;26.90;1.00;;;;;;5119453;27;20488;-56
2021/07/29 09:54:46;;;;;;;3.83;3.50;;;27.40;1.00;;;;;;5135275;27;20450;-55
2021/07/29 09:57:12;;;;;;;4.00;3.10;;;27.40;1.00;;;;;;5150853;27;20430;-56
2021/07/29 09:59:38;;;;;;;3.20;2.90;;;27.50;1.00;;;;;;5135522;27;20474;-56
2021/07/29 10:02:06;;;;;;;4.40;3.67;;;27.50;1.00;;;;;;5139872;27;20446;-54
2021/07/29 10:04:34;;;;;;;4.07;3.57;;;27.40;1.00;;;;;;5132453;27;20458;-56
2021/07/29 10:07:02;;;;;;;4.90;3.30;;;26.90;1.00;;;;;;5131838;27;20443;-57
2021/07/29 10:09:30;;;;;;;3.27;2.97;;;26.70;1.00;;;;;;5136152;27;20431;-57
2021/07/29 10:11:58;;;;;;;3.10;2.80;;;26.20;1.00;;;;;;5127528;27;20453;-56
2021/07/29 10:14:55;;;;;;;5.37;3.30;;;26.20;1.00;;;;;;5113625;27;20459;-57
2021/07/29 10:17:36;;;;;;;3.73;3.43;;;26.20;1.00;;;;;;5130213;27;20534;-56
2021/07/29 10:20:17;;;;;;;5.50;3.53;;;26.70;1.00;;;;;;5128168;27;20927;-56
2021/07/29 10:22:45;;;;;;;4.47;3.73;;;27.20;1.00;;;;;;5129755;27;20572;-54
2021/07/29 10:25:11;;;;;;;3.80;3.20;;;27.30;1.00;;;;;;5135493;27;20685;-57
2021/07/29 10:27:37;;;;;;;4.10;3.70;;;26.80;1.00;;;;;;5139377;27;20924;-56
2021/07/29 10:30:21;;;;;;;4.57;3.60;;;26.60;1.00;;;;;;5128169;27;20446;-55
2021/07/29 10:32:51;;;;;;;4.03;3.40;;;26.70;1.00;;;;;;5130163;27;20192;-56
2021/07/29 10:35:26;;;;;;;3.73;3.40;;;26.80;1.00;;;;;;5129858;27;20951;-55
2021/07/29 10:37:55;;;;;;;3.50;3.20;;;27.10;1.00;;;;;;5133906;27;20518;-56
2021/07/29 10:40:34;;;;;;;4.87;4.17;;;27.30;1.00;;;;;;5132029;27;20939;-56
2021/07/29 10:43:24;;;;;;;6.13;3.80;;;26.40;1.00;;;;;;5137538;27;20434;-56
2021/07/29 10:45:51;;;;;;;3.73;3.40;;;26.40;1.00;;;;;;5130593;27;20502;-56
2021/07/29 10:48:43;;;;;;;4.90;3.40;;;26.80;1.00;;;;;;5148750;27;20982;-55
2021/07/29 10:51:21;;;;;;;4.23;3.83;;;26.50;1.00;;;;;;5133395;27;20438;-55
2021/07/29 10:53:49;;;;;;;3.90;3.47;;;26.30;1.00;;;;;;5129486;27;20439;-56
2021/07/29 10:56:17;;;;;;;4.07;3.77;;;26.90;1.00;;;;;;5131577;27;20427;-56
2021/07/29 10:58:43;;;;;;;4.63;3.60;;;26.70;1.00;;;;;;5130833;27;20522;-56
2021/07/29 11:01:12;;;;;;;3.30;3.00;;;26.50;1.00;;;;;;5130967;27;20436;-55
2021/07/29 11:03:45;;;;;;;4.87;3.37;;;26.20;1.00;;;;;;5133504;27;20522;-56
2021/07/29 11:06:13;;;;;;;7.13;3.50;;;26.30;1.00;;;;;;5129297;27;20439;-57
2021/07/29 11:08:42;;;;;;;5.80;3.60;;;26.50;1.00;;;;;;5110859;27;20469;-56
2021/07/29 11:11:07;;;;;;;3.73;3.43;;;26.50;1.00;;;;;;5129153;27;21787;-55
2021/07/29 11:13:35;;;;;;;4.50;3.40;;;26.60;1.00;;;;;;5125834;27;20435;-56
2021/07/29 11:16:01;;;;;;;7.20;3.93;;;26.80;1.00;;;;;;5108927;27;20173;-55
2021/07/29 11:18:27;;;;;;;3.80;3.50;;;26.90;1.00;;;;;;5137029;27;20417;-55
2021/07/29 11:20:53;;;;;;;4.33;3.00;;;26.70;1.00;;;;;;5139036;27;20773;-57
2021/07/29 11:23:37;;;;;;;4.67;3.40;;;26.70;1.00;;;;;;5130543;27;20685;-56
2021/07/29 11:26:04;;;;;;;3.93;3.30;;;27.00;1.00;;;;;;5129050;27;20452;-56
2021/07/29 11:28:31;;;;;;;3.97;3.57;;;27.30;1.00;;;;;;5130589;27;20429;-56
2021/07/29 11:30:57;;;;;;;4.17;3.60;;;27.40;1.00;;;;;;5130908;27;20450;-56
2021/07/29 11:33:25;;;;;;;4.23;3.50;;;27.10;1.00;;;;;;5131118;27;20965;-56
2021/07/29 11:35:51;;;;;;;3.50;3.20;;;26.50;1.00;;;;;;5128897;27;20439;-55
2021/07/29 11:38:19;;;;;;;9.73;3.53;;;26.30;1.00;;;;;;5133344;27;20431;-56
2021/07/29 11:40:45;;;;;;;3.73;3.23;;;26.30;1.00;;;;;;5150716;27;20426;-55
2021/07/29 11:43:25;;;;;;;3.70;3.27;;;26.40;1.00;;;;;;5127126;27;21051;-55
2021/07/29 11:45:51;;;;;;;3.97;3.40;;;26.20;1.00;;;;;;5129264;27;20470;-56
2021/07/29 11:48:23;;;;;;;4.80;3.53;;;26.30;1.00;;;;;;5130867;27;20451;-57
2021/07/29 11:50:51;;;;;;;4.00;3.00;;;26.50;1.00;;;;;;5130974;27;20189;-55
2021/07/29 11:53:17;;;;;;;6.47;3.70;;;26.60;1.00;;;;;;5130521;27;20985;-55
2021/07/29 11:55:54;;;;;;;6.73;3.20;;;26.50;1.00;;;;;;5130890;27;20443;-56
2021/07/29 11:58:20;;;;;;;4.60;3.27;;;26.50;1.00;;;;;;5129823;27;20532;-56
2021/07/29 12:00:46;;;;;;;4.63;3.50;;;26.70;1.00;;;;;;5132695;27;20429;-56
2021/07/29 12:03:23;;;;;;;4.10;3.60;;;26.60;1.00;;;;;;5135186;27;20672;-55
2021/07/29 12:05:49;;;;;;;3.30;2.90;;;26.50;1.00;;;;;;5134153;27;20969;-56
2021/07/29 12:08:15;;;;;;;3.47;3.17;;;26.70;1.00;;;;;;5116182;27;20936;-56
2021/07/29 12:10:41;;;;;;;4.67;3.63;;;27.10;1.00;;;;;;5134393;27;20437;-55
2021/07/29 12:13:09;;;;;;;4.20;2.93;;;27.20;1.00;;;;;;5134619;27;20196;-57
2021/07/29 12:15:34;;;;;;;5.03;3.30;;;27.30;1.00;;;;;;5133786;27;20405;-56
2021/07/29 12:18:16;;;;;;;5.27;3.30;;;27.20;1.00;;;;;;5134012;27;20524;-55
2021/07/29 12:20:45;;;;;;;3.87;3.47;;;27.20;1.00;;;;;;5133440;27;20181;-55
2021/07/29 12:23:13;;;;;;;6.10;3.60;;;27.00;1.00;;;;;;5134530;27;20423;-56
2021/07/29 12:25:39;;;;;;;3.87;3.40;;;26.80;1.00;;;;;;5115926;27;20463;-56
2021/07/29 12:28:05;;;;;;;3.80;3.33;;;26.70;1.00;;;;;;5134440;27;20431;-56
2021/07/29 12:30:39;;;;;;;3.80;3.23;;;26.80;1.00;;;;;;5115583;27;20434;-55
2021/07/29 12:33:21;;;;;;;4.50;3.23;;;26.80;1.00;;;;;;5132962;27;20188;-57
2021/07/29 12:35:57;;;;;;;3.90;3.50;;;27.30;1.00;;;;;;5133997;27;20431;-56
2021/07/29 12:38:37;;;;;;;3.47;3.10;;;27.30;1.00;;;;;;5142206;27;20433;-55
2021/07/29 12:41:04;;;;;;;3.77;3.27;;;27.20;1.00;;;;;;5142929;27;20532;-57
2021/07/29 12:43:31;;;;;;;3.30;3.00;;;27.20;1.00;;;;;;5134052;27;20443;-56
2021/07/29 12:46:02;;;;;;;4.67;3.13;;;27.10;1.00;;;;;;5131325;27;20462;-56
2021/07/29 12:48:29;;;;;;;5.13;3.30;;;27.10;1.00;;;;;;5131650;27;20434;-55
2021/07/29 12:50:56;;;;;;;3.60;3.13;;;27.10;1.00;;;;;;5114191;27;20445;-56
2021/07/29 12:53:23;;;;;;;3.70;3.40;;;26.80;1.00;;;;;;5132134;27;20516;-56
2021/07/29 12:55:51;;;;;;;4.70;3.37;;;26.30;1.00;;;;;;5131920;27;20471;-56
2021/07/29 12:58:18;;;;;;;3.03;2.73;;;26.30;1.00;;;;;;5113503;27;20438;-55
2021/07/29 13:00:48;;;;;;;3.40;3.10;;;26.20;1.00;;;;;;5133367;27;20426;-56